Time;durP1;ratioP1;P1;durP2;ratioP2;P2;SDS_P1;SDS_P2;PMS_P1;PMS_P2;Temp;Humidity;BMP_temperature;BMP_pressure;BME280_temperature;BME280_humidity;BME280_pressure;Samples;Min_cycle;Max_cycle;Signal;HPM_P1;HPM_P2
2022/05/05 00:01:15;82308.00;0.27;143.02;0.00;0.00;0.62;;;;;16.50;1.00;;;;;;2268283;61;1407;-87
2022/05/05 00:03:42;0.00;0.00;0.62;0.00;0.00;0.62;;;;;16.50;1.00;;;;;;2268237;61;2152;-86
2022/05/05 00:06:10;210377.00;0.70;363.78;65232.00;0.22;113.52;;;;;16.50;1.00;;;;;;2268346;61;1011;-87
2022/05/05 00:08:37;23177.00;0.08;40.77;0.00;0.00;0.62;;;;;16.40;1.00;;;;;;2268278;61;2010;-86
2022/05/05 00:16:33;212468.00;0.71;367.38;77556.00;0.26;134.82;;;;;16.50;1.00;;;;;;2268429;61;717;-87
2022/05/05 00:19:00;207070.00;0.69;358.09;78533.00;0.26;136.50;;;;;16.70;1.00;;;;;;2268391;61;1006;-85
2022/05/05 00:21:28;216298.00;0.72;373.97;87320.00;0.29;151.68;;;;;16.40;1.00;;;;;;2268091;61;1377;-86
2022/05/05 00:23:55;467802.00;1.56;806.41;122987.00;0.41;213.23;;;;;16.00;1.00;;;;;;2268206;61;1096;-87
2022/05/05 00:26:22;329975.00;1.10;569.44;85730.00;0.29;148.93;;;;;15.80;1.00;;;;;;2268206;61;1206;-87
2022/05/05 00:28:49;167819.00;0.56;290.51;77259.00;0.26;134.30;;;;;15.90;1.00;;;;;;2268161;61;1992;-86
2022/05/05 00:31:16;267907.00;0.89;462.75;81412.00;0.27;141.48;;;;;16.30;1.00;;;;;;2268040;61;1376;-86
2022/05/05 00:33:43;231923.00;0.77;400.86;84326.00;0.28;146.51;;;;;16.60;1.00;;;;;;2268020;61;1088;-85
2022/05/05 00:36:09;210053.00;0.70;363.23;80221.00;0.27;139.42;;;;;16.70;1.00;;;;;;2268228;61;1130;-88
2022/05/05 00:38:38;187419.00;0.62;324.26;81282.00;0.27;141.25;;;;;16.90;1.00;;;;;;2268052;61;1100;-85
2022/05/05 00:41:05;210876.00;0.70;364.64;80444.00;0.27;139.80;;;;;17.10;1.00;;;;;;2268078;61;1339;-87
2022/05/05 00:43:32;256711.00;0.86;443.49;81360.00;0.27;141.39;;;;;17.00;1.00;;;;;;2268122;61;995;-84
2022/05/05 00:46:00;164399.00;0.55;284.62;62332.00;0.21;108.51;;;;;17.10;1.00;;;;;;2267802;61;1071;-84
2022/05/05 00:48:28;249652.00;0.83;431.35;95316.00;0.32;165.49;;;;;17.30;1.00;;;;;;2267839;61;1999;-84
2022/05/05 00:50:56;64392.00;0.21;112.07;0.00;0.00;0.62;;;;;17.20;1.00;;;;;;2268129;61;1364;-85
2022/05/05 00:53:24;118287816.00;394.29;67043612.00;118238904.00;394.13;66960392.00;;;;;17.30;1.00;;;;;;2267839;61;1175;-86
2022/05/05 00:55:56;37491.00;0.12;65.55;0.00;0.00;0.62;;;;;17.20;1.00;;;;;;2268185;61;1029;-85
2022/05/05 00:58:25;107633.00;0.36;186.75;0.00;0.00;0.62;;;;;17.40;1.00;;;;;;2268064;61;1085;-86
2022/05/05 01:00:52;0.00;0.00;0.62;0.00;0.00;0.62;;;;;17.40;1.00;;;;;;2268130;61;1269;-84
2022/05/05 01:03:19;0.00;0.00;0.62;0.00;0.00;0.62;;;;;17.30;1.00;;;;;;2267881;61;1594;-85
2022/05/05 01:05:46;0.00;0.00;0.62;0.00;0.00;0.62;;;;;17.40;1.00;;;;;;2268124;61;1115;-86
2022/05/05 01:08:13;71234.00;0.24;123.89;0.00;0.00;0.62;;;;;17.40;1.00;;;;;;2268074;61;1995;-84
2022/05/05 01:10:40;0.00;0.00;0.62;0.00;0.00;0.62;;;;;17.40;1.00;;;;;;2268074;61;1242;-86
2022/05/05 01:13:08;30632.00;0.10;53.68;0.00;0.00;0.62;;;;;17.20;1.00;;;;;;2267915;61;1144;-84
2022/05/05 01:15:37;0.00;0.00;0.62;0.00;0.00;0.62;;;;;17.30;1.00;;;;;;2267925;61;1130;-84
2022/05/05 01:18:04;0.00;0.00;0.62;0.00;0.00;0.62;;;;;17.30;1.00;;;;;;2268037;61;1113;-87
2022/05/05 01:20:31;0.00;0.00;0.62;0.00;0.00;0.62;;;;;17.10;1.00;;;;;;2268025;61;1236;-84
2022/05/05 01:23:00;0.00;0.00;0.62;0.00;0.00;0.62;;;;;17.00;1.00;;;;;;2267735;61;1125;-85
2022/05/05 01:28:12;495225.00;1.65;853.60;196852.00;0.66;340.50;;;;;17.00;1.00;;;;;;2267938;61;1919;-85
2022/05/05 01:30:40;5553.00;0.02;10.24;0.00;0.00;0.62;;;;;17.00;1.00;;;;;;2267552;61;1389;-85
2022/05/05 01:33:14;50425.00;0.17;87.92;0.00;0.00;0.62;;;;;17.00;1.00;;;;;;2268010;61;1054;-85
2022/05/05 01:35:42;0.00;0.00;0.62;0.00;0.00;0.62;;;;;17.30;1.00;;;;;;2267922;61;1126;-86
2022/05/05 01:38:12;0.00;0.00;0.62;0.00;0.00;0.62;;;;;17.30;1.00;;;;;;2267889;61;1132;-86
2022/05/05 01:40:40;72033.00;0.24;125.27;0.00;0.00;0.62;;;;;17.30;1.00;;;;;;2268065;61;1300;-86
2022/05/05 01:43:08;0.00;0.00;0.62;0.00;0.00;0.62;;;;;17.30;1.00;;;;;;2268343;61;1162;-85
2022/05/05 01:45:36;0.00;0.00;0.62;0.00;0.00;0.62;;;;;17.30;1.00;;;;;;2268591;61;1021;-85
2022/05/05 01:48:03;253.00;0.00;1.06;0.00;0.00;0.62;;;;;17.20;1.00;;;;;;2268624;61;1918;-84
2022/05/05 01:50:31;0.00;0.00;0.62;0.00;0.00;0.62;;;;;17.30;1.00;;;;;;2268597;61;1325;-84
2022/05/05 01:53:00;30279.00;0.10;53.07;0.00;0.00;0.62;;;;;17.40;1.00;;;;;;2268664;61;1370;-84
2022/05/05 01:55:30;0.00;0.00;0.62;0.00;0.00;0.62;;;;;17.30;1.00;;;;;;2268681;61;1069;-86
2022/05/05 01:57:57;254.00;0.00;1.06;0.00;0.00;0.62;;;;;17.30;1.00;;;;;;2268768;61;1045;-86
2022/05/05 02:00:25;0.00;0.00;0.62;0.00;0.00;0.62;;;;;17.20;1.00;;;;;;2268632;61;1404;-84
2022/05/05 02:02:53;43979.00;0.15;76.77;0.00;0.00;0.62;;;;;17.10;1.00;;;;;;2268599;61;1109;-85
2022/05/05 02:05:20;117603512.00;392.01;65885744.00;117553272.00;391.84;65801268.00;;;;;17.00;1.00;;;;;;2268528;61;1083;-85
2022/05/05 02:07:48;0.00;0.00;0.62;0.00;0.00;0.62;;;;;16.90;1.00;;;;;;2268681;61;1192;-84
2022/05/05 02:10:17;0.00;0.00;0.62;0.00;0.00;0.62;;;;;17.00;1.00;;;;;;2268525;61;2005;-86
2022/05/05 02:12:46;15626.00;0.05;27.69;0.00;0.00;0.62;;;;;17.00;1.00;;;;;;2268555;61;1116;-85
2022/05/05 02:15:15;0.00;0.00;0.62;0.00;0.00;0.62;;;;;17.00;1.00;;;;;;2268584;61;1632;-87
2022/05/05 02:17:44;126556.00;0.42;219.39;0.00;0.00;0.62;;;;;16.80;1.00;;;;;;2268543;61;1252;-85
2022/05/05 02:20:12;0.00;0.00;0.62;0.00;0.00;0.62;;;;;16.70;1.00;;;;;;2268637;61;1380;-85
2022/05/05 02:22:39;166368.00;0.55;288.01;0.00;0.00;0.62;;;;;17.00;1.00;;;;;;2268748;61;1126;-87
2022/05/05 02:25:07;0.00;0.00;0.62;0.00;0.00;0.62;;;;;16.90;1.00;;;;;;2268526;61;1072;-84
2022/05/05 02:27:48;123330.00;0.41;213.83;0.00;0.00;0.62;;;;;16.70;1.00;;;;;;2268768;61;1146;-86
2022/05/05 02:30:15;363.00;0.00;1.25;0.00;0.00;0.62;;;;;16.80;1.00;;;;;;2268554;61;1936;-86
2022/05/05 02:32:43;4070.00;0.01;7.67;0.00;0.00;0.62;;;;;17.00;1.00;;;;;;2268660;61;1158;-86
2022/05/05 02:35:10;41240.00;0.14;72.03;0.00;0.00;0.62;;;;;17.00;1.00;;;;;;2268676;61;1066;-87
2022/05/05 02:40:21;112157.00;0.37;194.55;0.00;0.00;0.62;;;;;17.00;1.00;;;;;;2268693;61;1313;-88
2022/05/05 02:42:50;10443.00;0.03;18.72;0.00;0.00;0.62;;;;;16.90;1.00;;;;;;2268680;61;1148;-88
2022/05/05 02:45:17;36903.00;0.12;64.53;0.00;0.00;0.62;;;;;16.80;1.00;;;;;;2268566;61;1099;-85
2022/05/05 02:47:46;10959.00;0.04;19.61;0.00;0.00;0.62;;;;;16.80;1.00;;;;;;2268540;61;1082;-86
2022/05/05 02:50:13;1110.00;0.00;2.54;0.00;0.00;0.62;;;;;16.90;1.00;;;;;;2268545;61;1928;-85
2022/05/05 02:52:40;12437.00;0.04;22.17;0.00;0.00;0.62;;;;;16.80;1.00;;;;;;2268612;61;1118;-86
2022/05/05 02:55:08;0.00;0.00;0.62;0.00;0.00;0.62;;;;;16.90;1.00;;;;;;2268335;61;1092;-86
2022/05/05 02:57:35;6230.00;0.02;11.42;0.00;0.00;0.62;;;;;17.00;1.00;;;;;;2268616;61;1083;-86
2022/05/05 03:00:07;13479.00;0.04;23.98;0.00;0.00;0.62;;;;;17.20;1.00;;;;;;2268565;61;1466;-85
2022/05/05 03:02:34;0.00;0.00;0.62;0.00;0.00;0.62;;;;;16.90;1.00;;;;;;2268539;61;1576;-86
2022/05/05 03:05:01;15708.00;0.05;27.84;0.00;0.00;0.62;;;;;16.70;1.00;;;;;;2268559;61;1110;-86
2022/05/05 03:07:29;58190.00;0.19;101.35;0.00;0.00;0.62;;;;;16.60;1.00;;;;;;2268560;61;1178;-86
2022/05/05 03:09:56;82586.00;0.28;143.50;0.00;0.00;0.62;;;;;16.60;1.00;;;;;;2268504;61;2020;-85
2022/05/05 03:12:23;44446.00;0.15;77.58;0.00;0.00;0.62;;;;;16.60;1.00;;;;;;2268543;61;1568;-86
2022/05/05 03:14:49;67716.00;0.23;117.81;0.00;0.00;0.62;;;;;16.30;1.00;;;;;;2268529;61;1051;-86
2022/05/05 03:17:18;8148.00;0.03;14.74;0.00;0.00;0.62;;;;;16.30;1.00;;;;;;2268457;61;1107;-86
2022/05/05 03:19:45;34896.00;0.12;61.06;0.00;0.00;0.62;;;;;16.40;1.00;;;;;;2268490;61;1044;-85
2022/05/05 03:22:11;285758.00;0.95;493.44;0.00;0.00;0.62;;;;;16.60;1.00;;;;;;2268514;61;1440;-85
2022/05/05 03:24:38;231031.00;0.77;399.32;0.00;0.00;0.62;;;;;16.40;1.00;;;;;;2268469;61;1140;-87
2022/05/05 03:27:06;9473.00;0.03;17.04;0.00;0.00;0.62;;;;;16.30;1.00;;;;;;2268506;61;1161;-87
2022/05/05 03:29:33;0.00;0.00;0.62;0.00;0.00;0.62;;;;;16.30;1.00;;;;;;2268518;61;1911;-86
2022/05/05 03:32:00;148123.00;0.49;256.57;0.00;0.00;0.62;;;;;16.20;1.00;;;;;;2268438;61;1383;-83
2022/05/05 03:34:29;107700.00;0.36;186.86;0.00;0.00;0.62;;;;;16.30;1.00;;;;;;2268381;61;1663;-85
2022/05/05 03:36:55;276000.00;0.92;476.66;57345.00;0.19;99.89;;;;;16.60;1.00;;;;;;2268358;61;2194;-84
2022/05/05 03:39:22;55589.00;0.19;96.85;0.00;0.00;0.62;;;;;16.70;1.00;;;;;;2268382;61;1133;-86
2022/05/05 03:41:49;167935.00;0.56;290.71;27535.00;0.09;48.32;;;;;16.60;1.00;;;;;;2268376;61;1493;-84
2022/05/05 03:44:16;42505.00;0.14;74.22;0.00;0.00;0.62;;;;;16.30;1.00;;;;;;2268244;61;1072;-86
2022/05/05 03:46:43;25813.00;0.09;45.34;0.00;0.00;0.62;;;;;16.40;1.00;;;;;;2268348;61;1116;-85
2022/05/05 03:49:10;0.00;0.00;0.62;0.00;0.00;0.62;;;;;16.60;1.00;;;;;;2268324;61;1994;-86
2022/05/05 03:51:39;0.00;0.00;0.62;0.00;0.00;0.62;;;;;16.30;1.00;;;;;;2268409;61;1285;-87
2022/05/05 03:54:06;0.00;0.00;0.62;0.00;0.00;0.62;;;;;16.30;1.00;;;;;;2268321;61;1063;-88
2022/05/05 03:56:33;247984.00;0.83;428.48;0.00;0.00;0.62;;;;;16.20;1.00;;;;;;2268204;61;1055;-85
2022/05/05 03:59:01;0.00;0.00;0.62;0.00;0.00;0.62;;;;;16.20;1.00;;;;;;2268360;61;1168;-86
2022/05/05 04:01:28;118068.00;0.39;204.75;870.00;0.00;2.13;;;;;16.20;1.00;;;;;;2268319;61;1405;-86
2022/05/05 04:03:55;0.00;0.00;0.62;0.00;0.00;0.62;;;;;16.30;1.00;;;;;;2268379;61;1175;-84
2022/05/05 04:06:22;67126.00;0.22;116.79;0.00;0.00;0.62;;;;;16.50;1.00;;;;;;2268150;61;929;-86
2022/05/05 04:08:50;82328.00;0.27;143.06;16426.00;0.05;29.08;;;;;16.40;1.00;;;;;;2268337;61;1998;-84
2022/05/05 04:11:17;68914.00;0.23;119.88;0.00;0.00;0.62;;;;;16.40;1.00;;;;;;2268392;61;2047;-85
2022/05/05 04:13:44;127546.00;0.43;221.10;23372.00;0.08;41.11;;;;;16.30;1.00;;;;;;2268407;61;1081;-85
2022/05/05 04:16:11;15942.00;0.05;28.24;0.00;0.00;0.62;;;;;16.40;1.00;;;;;;2268378;61;1027;-85
2022/05/05 04:18:38;0.00;0.00;0.62;0.00;0.00;0.62;;;;;16.50;1.00;;;;;;2268357;61;1103;-85
2022/05/05 04:21:06;14028.00;0.05;24.93;0.00;0.00;0.62;;;;;16.40;1.00;;;;;;2268224;61;1817;-84
2022/05/05 04:23:33;24438.00;0.08;42.95;0.00;0.00;0.62;;;;;16.50;1.00;;;;;;2268250;61;931;-84
2022/05/05 04:26:02;139433.00;0.46;241.59;0.00;0.00;0.62;;;;;16.50;1.00;;;;;;2268224;61;1089;-82
2022/05/05 04:28:29;229735.00;0.77;397.09;0.00;0.00;0.62;;;;;16.70;1.00;;;;;;2268365;61;1098;-84
2022/05/05 04:30:56;9031.00;0.03;16.27;0.00;0.00;0.62;;;;;16.80;1.00;;;;;;2268213;61;1928;-83
2022/05/05 04:33:24;22453.00;0.07;39.52;0.00;0.00;0.62;;;;;16.70;1.00;;;;;;2268201;61;1057;-82
2022/05/05 04:35:51;0.00;0.00;0.62;0.00;0.00;0.62;;;;;16.80;1.00;;;;;;2268299;61;2192;-83
2022/05/05 04:38:17;0.00;0.00;0.62;0.00;0.00;0.62;;;;;16.80;1.00;;;;;;2268211;61;1443;-86
2022/05/05 04:40:44;59904.00;0.20;104.31;0.00;0.00;0.62;;;;;17.00;1.00;;;;;;2268155;61;1273;-85
2022/05/05 04:43:13;102501.00;0.34;177.89;0.00;0.00;0.62;;;;;17.40;1.00;;;;;;2268004;61;1132;-83
2022/05/05 04:45:40;0.00;0.00;0.62;0.00;0.00;0.62;;;;;17.30;1.00;;;;;;2268106;61;1123;-82
2022/05/05 04:48:08;211054.00;0.70;364.95;14058.00;0.05;24.98;;;;;17.40;1.00;;;;;;2268168;61;1099;-82
2022/05/05 04:50:35;0.00;0.00;0.62;0.00;0.00;0.62;;;;;17.40;1.00;;;;;;2268109;61;1992;-82
2022/05/05 04:53:02;219132.00;0.73;378.85;0.00;0.00;0.62;;;;;17.50;1.00;;;;;;2267834;61;1224;-83
2022/05/05 04:55:29;0.00;0.00;0.62;0.00;0.00;0.62;;;;;17.30;1.00;;;;;;2268267;61;1076;-87
2022/05/05 04:57:56;34379.00;0.11;60.16;0.00;0.00;0.62;;;;;17.10;1.00;;;;;;2268121;61;1064;-86
2022/05/05 05:00:24;196129.00;0.65;339.26;0.00;0.00;0.62;;;;;17.30;1.00;;;;;;2268068;61;1397;-84
2022/05/05 05:02:51;22732.00;0.08;40.00;0.00;0.00;0.62;;;;;17.50;1.00;;;;;;2268127;61;949;-85
2022/05/05 05:05:18;0.00;0.00;0.62;0.00;0.00;0.62;;;;;17.60;1.00;;;;;;2268206;61;1146;-85
2022/05/05 05:07:45;31363.00;0.10;54.94;0.00;0.00;0.62;;;;;17.60;1.00;;;;;;2267999;61;1087;-85
2022/05/05 05:10:17;0.00;0.00;0.62;0.00;0.00;0.62;;;;;17.40;1.00;;;;;;2268074;61;1916;-83
2022/05/05 05:12:47;103987.00;0.35;180.45;0.00;0.00;0.62;;;;;17.30;1.00;;;;;;2268148;61;942;-83
2022/05/05 05:15:18;241339.00;0.80;417.05;0.00;0.00;0.62;;;;;17.40;1.00;;;;;;2267930;61;1097;-84
2022/05/05 05:17:46;153287.00;0.51;265.47;0.00;0.00;0.62;;;;;17.30;1.00;;;;;;2267777;61;1578;-83
2022/05/05 05:20:16;245900.00;0.82;424.90;0.00;0.00;0.62;;;;;17.60;1.00;;;;;;2268025;61;1430;-84
2022/05/05 05:22:47;274806.00;0.92;474.61;12553.00;0.04;22.37;;;;;17.50;1.00;;;;;;2267862;61;1408;-87
2022/05/05 05:25:17;1068467.00;3.56;1854.12;90455.00;0.30;157.09;;;;;17.80;1.00;;;;;;2267915;61;1586;-85
2022/05/05 05:27:44;1069996.00;3.57;1856.85;112803.00;0.38;195.67;;;;;18.10;1.00;;;;;;2268034;61;1475;-86
2022/05/05 05:30:13;978112.00;3.26;1693.74;19461.00;0.06;34.34;;;;;18.20;1.00;;;;;;2268044;61;1923;-84
2022/05/05 05:32:43;1196833.00;3.99;2084.50;65562.00;0.22;114.09;;;;;18.30;1.00;;;;;;2268042;61;1110;-85
2022/05/05 05:35:11;896853.00;2.99;1550.59;37655.00;0.13;65.83;;;;;18.40;1.00;;;;;;2267483;61;1616;-85
2022/05/05 05:37:41;967712.00;3.23;1675.37;25559.00;0.09;44.90;;;;;18.60;1.00;;;;;;2267941;61;1478;-85
2022/05/05 05:40:10;1244359.00;4.15;2170.63;213373.00;0.71;368.94;;;;;18.90;1.00;;;;;;2267989;61;1561;-85
2022/05/05 05:42:37;843637.00;2.81;1457.34;32388.00;0.11;56.72;;;;;19.10;1.00;;;;;;2267958;61;991;-83
2022/05/05 05:45:08;771386.00;2.57;1331.27;41882.00;0.14;73.14;;;;;18.90;1.00;;;;;;2267915;61;1121;-84
2022/05/05 05:47:35;1038836.00;3.46;1801.38;27319.00;0.09;47.94;;;;;18.70;1.00;;;;;;2267820;61;1596;-86
2022/05/05 05:50:02;1076640.00;3.59;1868.70;132352.00;0.44;229.38;;;;;18.50;1.00;;;;;;2267934;61;1999;-84
2022/05/05 05:52:31;776615.00;2.59;1340.37;6890.00;0.02;12.56;;;;;18.40;1.00;;;;;;2267889;61;1378;-84
2022/05/05 05:54:58;750087.00;2.50;1294.21;53256.00;0.18;92.82;;;;;18.40;1.00;;;;;;2268074;61;1185;-85
2022/05/05 05:57:25;951669.00;3.17;1647.05;49022.00;0.16;85.49;;;;;18.50;1.00;;;;;;2267935;61;1532;-86
2022/05/05 05:59:53;912694.00;3.04;1578.43;20589.00;0.07;36.29;;;;;18.40;1.00;;;;;;2267847;61;1615;-85
2022/05/05 06:05:06;324515.00;1.08;560.06;0.00;0.00;0.62;;;;;18.80;1.00;;;;;;2268066;61;722;-87
2022/05/05 06:07:37;1072434.00;3.57;1861.20;37828.00;0.13;66.13;;;;;19.00;1.00;;;;;;2267879;61;1575;-86
2022/05/05 06:10:08;712870.00;2.38;1229.56;16436.00;0.05;29.10;;;;;18.90;1.00;;;;;;2268000;61;1985;-85
2022/05/05 06:12:36;814233.00;2.71;1405.96;70185.00;0.23;122.08;;;;;18.90;1.00;;;;;;2267921;61;1514;-85
2022/05/05 06:15:07;1022752.00;3.41;1772.81;56662.00;0.19;98.71;;;;;18.90;1.00;;;;;;2267990;61;1495;-86
2022/05/05 06:17:36;1114803.00;3.72;1936.92;108887.00;0.36;188.91;;;;;18.70;1.00;;;;;;2267862;61;1141;-85
2022/05/05 06:20:08;989766.00;3.30;1714.35;1924.00;0.01;3.95;;;;;18.80;1.00;;;;;;2267877;61;1622;-86
2022/05/05 06:22:44;684640.00;2.28;1180.61;8067.00;0.03;14.60;;;;;19.10;1.00;;;;;;2267979;61;1967;-85
2022/05/05 06:25:15;981708.00;3.27;1700.10;102283.00;0.34;177.51;;;;;19.10;1.00;;;;;;2267799;61;1543;-87
2022/05/05 06:27:43;923023.00;3.08;1596.59;144598.00;0.48;250.50;;;;;19.20;1.00;;;;;;2267902;61;1585;-87
2022/05/05 06:30:12;1129963.00;3.77;1964.09;123533.00;0.41;214.18;;;;;19.20;1.00;;;;;;2268548;61;2010;-85
2022/05/05 06:32:40;861577.00;2.87;1488.73;35965.00;0.12;62.91;;;;;19.40;1.00;;;;;;2268521;61;1260;-86
2022/05/05 06:35:11;765727.00;2.55;1321.42;28880.00;0.10;50.64;;;;;19.10;1.00;;;;;;2268633;61;1721;-86
2022/05/05 06:37:40;907412.00;3.02;1569.14;51235.00;0.17;89.32;;;;;19.30;1.00;;;;;;2268526;61;1598;-86
2022/05/05 06:40:09;1061665.00;3.54;1842.00;31073.00;0.10;54.44;;;;;19.30;1.00;;;;;;2268493;61;1280;-83
2022/05/05 06:42:36;756029.00;2.52;1304.54;28193.00;0.09;49.46;;;;;19.10;1.00;;;;;;2268500;61;1403;-84
2022/05/05 06:45:10;1055895.00;3.52;1831.73;56109.00;0.19;97.75;;;;;18.60;1.00;;;;;;2268348;61;1467;-86
2022/05/05 06:47:37;933922.00;3.11;1615.78;28638.00;0.10;50.23;;;;;18.20;1.00;;;;;;2268501;61;990;-85
2022/05/05 06:50:06;882425.00;2.94;1525.27;77943.00;0.26;135.48;;;;;18.20;1.00;;;;;;2268557;61;2006;-85
2022/05/05 06:52:35;973908.00;3.25;1686.31;68387.00;0.23;118.97;;;;;17.80;1.00;;;;;;2268454;61;1513;-86
2022/05/05 06:55:05;748301.00;2.49;1291.10;13316.00;0.04;23.69;;;;;17.80;1.00;;;;;;2268519;61;984;-85
2022/05/05 06:57:37;1061973.00;3.54;1842.55;60617.00;0.20;105.54;;;;;17.90;1.00;;;;;;2268642;61;1045;-85
2022/05/05 07:00:07;854314.00;2.85;1476.02;25896.00;0.09;45.48;;;;;18.10;1.00;;;;;;2268538;61;1109;-85
2022/05/05 07:02:37;917691.00;3.06;1587.21;21170.00;0.07;37.30;;;;;17.90;1.00;;;;;;2268428;61;1486;-86
2022/05/05 07:07:49;450611.00;1.50;776.83;24944.00;0.08;43.83;;;;;17.30;1.00;;;;;;2268556;61;685;-86
2022/05/05 07:13:02;316241.00;1.05;545.84;0.00;0.00;0.62;;;;;18.00;1.00;;;;;;2268585;61;681;-85
2022/05/05 07:15:29;782476.00;2.61;1350.58;9471.00;0.03;17.03;;;;;18.20;1.00;;;;;;2268485;61;996;-85
2022/05/05 07:17:57;951232.00;3.17;1646.28;188135.00;0.63;325.50;;;;;18.40;1.00;;;;;;2268532;61;1151;-85
2022/05/05 07:20:24;790910.00;2.64;1365.28;92389.00;0.31;160.43;;;;;18.40;1.00;;;;;;2268379;61;1494;-86
2022/05/05 07:22:52;1017381.00;3.39;1763.28;95591.00;0.32;165.96;;;;;18.70;1.00;;;;;;2268407;61;1601;-87
2022/05/05 07:25:24;1058141.00;3.53;1835.72;137752.00;0.46;238.70;;;;;18.70;1.00;;;;;;2268537;61;993;-87
2022/05/05 07:27:55;1290348.00;4.30;2254.45;146335.00;0.49;253.49;;;;;18.40;1.00;;;;;;2268438;61;1536;-87
2022/05/05 07:30:23;1026617.00;3.42;1779.67;87909.00;0.29;152.70;;;;;18.00;1.00;;;;;;2268411;61;1986;-88
2022/05/05 07:32:53;1122557.00;3.74;1950.81;25037.00;0.08;43.99;;;;;18.10;1.00;;;;;;2268424;61;1616;-88
2022/05/05 07:35:20;1185588.00;3.95;2064.18;51116.00;0.17;89.12;;;;;18.30;1.00;;;;;;2268478;61;1094;-88
2022/05/05 07:37:47;485091.00;1.62;836.16;73911.00;0.25;128.52;;;;;18.40;1.00;;;;;;2268426;61;1900;-86
2022/05/05 07:42:58;368983.00;1.23;636.49;75664.00;0.25;131.55;;;;;18.70;1.00;;;;;;2268232;61;1680;-88
2022/05/05 07:45:28;606483.00;2.02;1045.42;98257.00;0.33;170.56;;;;;18.50;1.00;;;;;;2268197;61;1189;-87
2022/05/05 07:48:02;325118.00;1.08;561.09;78653.00;0.26;136.71;;;;;18.20;1.00;;;;;;2268473;61;1060;-85
2022/05/05 07:50:28;287124.00;0.96;495.79;79593.00;0.27;138.33;;;;;18.10;1.00;;;;;;2268247;61;1915;-88
2022/05/05 07:52:55;300038.00;1.00;517.99;39823.00;0.13;69.58;;;;;18.00;1.00;;;;;;2268443;61;999;-88
2022/05/05 07:55:22;341453.00;1.14;589.17;70020.00;0.23;121.79;;;;;18.30;1.00;;;;;;2268440;61;2144;-88
2022/05/05 07:57:49;200517.00;0.67;346.81;0.00;0.00;0.62;;;;;18.60;1.00;;;;;;2268429;61;1086;-87
2022/05/05 08:00:19;0.00;0.00;0.62;0.00;0.00;0.62;;;;;18.70;1.00;;;;;;2268279;61;1351;-87
2022/05/05 08:02:46;189268.00;0.63;327.45;11838.00;0.04;21.13;;;;;19.00;1.00;;;;;;2268463;61;1037;-88
2022/05/05 08:05:13;0.00;0.00;0.62;0.00;0.00;0.62;;;;;19.30;1.00;;;;;;2268369;61;1068;-86
2022/05/05 08:07:45;173406.00;0.58;300.13;0.00;0.00;0.62;;;;;19.20;1.00;;;;;;2268355;61;1061;-87
2022/05/05 08:10:12;8521.00;0.03;15.39;0.00;0.00;0.62;;;;;19.00;1.00;;;;;;2268240;61;2009;-88
2022/05/05 08:12:39;83616.00;0.28;145.28;0.00;0.00;0.62;;;;;19.00;1.00;;;;;;2268433;61;1130;-89
2022/05/05 08:15:08;363941.00;1.21;627.82;70580.00;0.24;122.76;;;;;18.80;1.00;;;;;;2268436;61;1015;-88
2022/05/05 08:17:36;0.00;0.00;0.62;0.00;0.00;0.62;;;;;18.80;1.00;;;;;;2268400;61;1153;-88
2022/05/05 08:20:07;137291.00;0.46;237.90;0.00;0.00;0.62;;;;;18.80;1.00;;;;;;2268570;61;1134;-87
2022/05/05 08:22:34;19230.00;0.06;33.94;0.00;0.00;0.62;;;;;18.60;1.00;;;;;;2268857;61;1058;-87
2022/05/05 08:30:30;19542.00;0.07;34.48;0.00;0.00;0.62;;;;;18.80;1.00;;;;;;2268726;61;1915;-86
2022/05/05 08:32:58;101105.00;0.34;175.48;405.00;0.00;1.32;;;;;18.90;1.00;;;;;;2268726;61;1083;-86
2022/05/05 08:35:27;6524.00;0.02;11.93;0.00;0.00;0.62;;;;;18.70;1.00;;;;;;2268676;61;2165;-87
2022/05/05 08:37:54;92452.00;0.31;160.54;26171.00;0.09;45.95;;;;;18.70;1.00;;;;;;2268536;61;1052;-88
2022/05/05 08:40:24;142390.00;0.47;246.69;0.00;0.00;0.62;;;;;18.90;1.00;;;;;;2268595;61;1380;-87
2022/05/05 08:42:51;0.00;0.00;0.62;0.00;0.00;0.62;;;;;18.90;1.00;;;;;;2268475;61;1157;-86
2022/05/05 08:45:19;91760.00;0.31;159.35;0.00;0.00;0.62;;;;;18.90;1.00;;;;;;2268408;61;1624;-87
2022/05/05 08:47:47;981560.00;3.27;1699.84;48091.00;0.16;83.88;;;;;19.20;1.00;;;;;;2268493;61;1540;-88
2022/05/05 08:50:16;1086027.00;3.62;1885.45;140464.00;0.47;243.37;;;;;19.10;1.00;;;;;;2268550;61;1990;-87
2022/05/05 08:52:48;938357.00;3.13;1623.59;66448.00;0.22;115.62;;;;;19.10;1.00;;;;;;2268292;61;1134;-86
2022/05/05 08:55:16;1615489.00;5.38;2862.38;149688.00;0.50;259.27;;;;;19.20;1.00;;;;;;2268496;61;963;-87
2022/05/05 08:57:43;866848.00;2.89;1497.97;33390.00;0.11;58.45;;;;;19.40;1.00;;;;;;2268437;61;1086;-86
2022/05/05 09:00:13;890912.00;2.97;1540.16;79486.00;0.26;138.15;;;;;19.20;1.00;;;;;;2268515;61;1320;-86
2022/05/05 09:02:40;1422816.00;4.74;2498.71;250465.00;0.83;432.75;;;;;19.00;1.00;;;;;;2268587;61;1166;-85
2022/05/05 09:05:08;751982.00;2.51;1297.50;109648.00;0.37;190.22;;;;;18.80;1.00;;;;;;2268464;61;1076;-86
2022/05/05 09:07:50;284103.00;0.95;490.59;90989.00;0.30;158.02;;;;;18.90;1.00;;;;;;2268389;61;1033;-87
2022/05/05 09:10:19;422787.00;1.41;728.98;71581.00;0.24;124.49;;;;;19.00;1.00;;;;;;2268217;61;1915;-86
2022/05/05 09:13:02;326574.00;1.09;563.60;71934.00;0.24;125.10;;;;;19.10;1.00;;;;;;2268096;61;1518;-87
2022/05/05 09:15:33;855406.00;2.85;1477.93;138185.00;0.46;239.44;;;;;19.10;1.00;;;;;;2267760;61;971;-87
2022/05/05 09:18:16;860883.00;2.87;1487.52;98543.00;0.33;171.06;;;;;18.80;1.00;;;;;;2268289;61;1038;-88
2022/05/05 09:20:44;1538441.00;5.13;2715.66;86864.00;0.29;150.89;;;;;18.60;1.00;;;;;;2267873;61;1465;-87
2022/05/05 09:23:28;972618.00;3.24;1684.03;109655.00;0.37;190.23;;;;;18.60;1.00;;;;;;2268174;61;1005;-89
2022/05/05 09:25:58;1104552.00;3.68;1918.57;52114.00;0.17;90.84;;;;;18.60;1.00;;;;;;2268198;61;1082;-88
2022/05/05 09:28:28;290363.00;0.97;501.35;72932.00;0.24;126.83;;;;;18.80;1.00;;;;;;2268195;61;971;-88
2022/05/05 09:30:56;118216.00;0.39;205.00;0.00;0.00;0.62;;;;;18.80;1.00;;;;;;2268249;61;1921;-90
2022/05/05 09:33:41;271402.00;0.90;468.75;1524.00;0.01;3.26;;;;;18.80;1.00;;;;;;2268228;61;1495;-87
2022/05/05 09:36:09;161012.00;0.54;278.78;0.00;0.00;0.62;;;;;19.10;1.00;;;;;;2268118;61;1561;-87
2022/05/05 09:38:58;255458.00;0.85;441.34;0.00;0.00;0.62;;;;;19.30;1.00;;;;;;2268306;61;983;-88
2022/05/05 09:41:28;20253.00;0.07;35.71;0.00;0.00;0.62;;;;;19.10;1.00;;;;;;2268208;61;1601;-87
2022/05/05 09:43:57;14441.00;0.05;25.64;0.00;0.00;0.62;;;;;19.20;1.00;;;;;;2268269;61;1719;-87
2022/05/05 09:46:34;308080.00;1.03;531.81;58235.00;0.19;101.43;;;;;19.20;1.00;;;;;;2268164;61;993;-87
2022/05/05 09:49:12;512102.00;1.71;882.66;166044.00;0.55;287.45;;;;;19.50;1.00;;;;;;2268254;61;943;-85
2022/05/05 09:51:44;97642.00;0.33;169.50;0.00;0.00;0.62;;;;;19.50;1.00;;;;;;2268052;61;1922;-87
2022/05/05 09:59:48;113937.00;0.38;197.62;0.00;0.00;0.62;;;;;19.60;1.00;;;;;;2268190;61;681;-87
2022/05/05 10:05:13;299963.00;1.00;517.86;0.00;0.00;0.62;;;;;19.90;1.00;;;;;;2268818;61;730;-86
2022/05/05 10:07:44;1618147.00;5.39;2867.47;61587.00;0.21;107.22;;;;;19.90;1.00;;;;;;2268696;61;1426;-86
2022/05/05 10:10:16;1784390.00;5.95;3190.60;166951.00;0.56;289.01;;;;;19.90;1.00;;;;;;2268716;61;2184;-85
2022/05/05 10:12:44;1623242.00;5.41;2877.24;49232.00;0.16;85.86;;;;;19.70;1.00;;;;;;2268547;61;2025;-87
2022/05/05 10:15:13;610353.00;2.03;1052.10;88942.00;0.30;154.48;;;;;19.70;1.00;;;;;;2268592;61;1661;-88
2022/05/05 10:17:43;429129.00;1.43;739.89;68364.00;0.23;118.93;;;;;19.10;1.00;;;;;;2284837;55;3803;-84
2022/05/05 10:20:13;512647.00;1.71;883.60;89053.00;0.30;154.67;;;;;18.90;1.00;;;;;;2272573;61;1556;-89
2022/05/05 10:22:52;134465.00;0.45;233.03;0.00;0.00;0.62;;;;;19.30;1.00;;;;;;2272768;61;1138;-87
2022/05/05 10:25:25;364145.00;1.21;628.17;77566.00;0.26;134.83;;;;;19.40;1.00;;;;;;2283433;40;3560;-85
2022/05/05 10:27:54;340095.00;1.13;586.84;19438.00;0.06;34.30;;;;;19.30;1.00;;;;;;2272675;61;1531;-87
2022/05/05 10:30:36;348494.00;1.16;601.27;59942.00;0.20;104.38;;;;;19.40;1.00;;;;;;2272696;61;1431;-87
2022/05/05 10:33:03;130578.00;0.44;226.33;0.00;0.00;0.62;;;;;19.50;1.00;;;;;;2272674;61;1060;-86